Time;durP1;ratioP1;P1;durP2;ratioP2;P2;SDS_P1;SDS_P2;PMS_P1;PMS_P2;Temp;Humidity;BMP_temperature;BMP_pressure;BME280_temperature;BME280_humidity;BME280_pressure;Samples;Min_cycle;Max_cycle;Signal;HPM_P1;HPM_P2
2023/08/16 00:02:10;;;;;;;2.30;1.93;;;;;;;;;;5053676;28;20188;-77
2023/08/16 00:04:36;;;;;;;2.40;2.20;;;;;;;;;;5056463;28;20216;-77
2023/08/16 00:07:02;;;;;;;2.40;2.20;;;;;;;;;;5071357;28;20177;-77
2023/08/16 00:09:27;;;;;;;2.37;1.97;;;;;;;;;;5063642;28;20189;-77
2023/08/16 00:11:52;;;;;;;2.33;2.03;;;;;;;;;;5051807;28;20181;-77
2023/08/16 00:14:18;;;;;;;3.70;1.90;;;;;;;;;;5061965;28;20181;-77
2023/08/16 00:16:43;;;;;;;3.23;2.33;;;;;;;;;;5071380;28;20241;-77
2023/08/16 00:19:08;;;;;;;4.20;2.10;;;;;;;;;;5069858;28;20207;-77
2023/08/16 00:21:33;;;;;;;2.07;1.87;;;;;;;;;;5052210;28;20178;-77
2023/08/16 00:23:59;;;;;;;2.13;1.93;;;;;;;;;;5076031;28;20293;-77
2023/08/16 00:26:24;;;;;;;2.20;2.00;;;;;;;;;;5072915;28;20548;-77
2023/08/16 00:28:49;;;;;;;2.30;2.10;;;;;;;;;;5077592;28;20186;-77
2023/08/16 00:31:14;;;;;;;2.80;2.40;;;;;;;;;;5060580;28;20180;-77
2023/08/16 00:33:40;;;;;;;2.63;2.00;;;;;;;;;;5057336;28;20190;-77
2023/08/16 00:36:06;;;;;;;2.87;1.90;;;;;;;;;;5079541;28;20217;-77
2023/08/16 00:38:31;;;;;;;2.40;2.20;;;;;;;;;;5051863;28;20196;-77
2023/08/16 00:40:57;;;;;;;2.30;2.10;;;;;;;;;;5076321;28;20268;-77
2023/08/16 00:43:22;;;;;;;2.37;2.17;;;;;;;;;;5059693;28;20179;-77
2023/08/16 00:45:48;;;;;;;2.47;2.27;;;;;;;;;;5064374;28;20181;-77
2023/08/16 00:48:13;;;;;;;5.07;2.17;;;;;;;;;;5057612;28;20269;-77
2023/08/16 00:50:39;;;;;;;2.60;2.40;;;;;;;;;;5061638;28;20202;-77
2023/08/16 00:53:05;;;;;;;2.67;2.30;;;;;;;;;;5075023;28;20202;-77
2023/08/16 00:55:31;;;;;;;2.67;2.20;;;;;;;;;;5064217;28;20176;-77
2023/08/16 00:57:56;;;;;;;2.50;2.30;;;;;;;;;;5073772;28;20263;-77
2023/08/16 01:00:22;;;;;;;3.57;2.30;;;;;;;;;;5081430;28;20255;-77
2023/08/16 01:02:47;;;;;;;2.10;1.97;;;;;;;;;;5056533;28;20202;-77
2023/08/16 01:05:12;;;;;;;4.17;2.50;;;;;;;;;;5061374;28;20190;-77
2023/08/16 01:07:38;;;;;;;2.93;2.63;;;;;;;;;;5054557;28;20180;-77
2023/08/16 01:10:03;;;;;;;2.33;2.17;;;;;;;;;;5059067;28;20188;-77
2023/08/16 01:12:49;;;;;;;2.57;2.37;;;;;;;;;;5059113;28;20182;-77
2023/08/16 01:15:17;;;;;;;2.20;2.10;;;;;;;;;;5071925;28;20184;-77
2023/08/16 01:17:43;;;;;;;2.17;2.00;;;;;;;;;;5071596;28;20190;-77
2023/08/16 01:20:09;;;;;;;2.23;2.03;;;;;;;;;;5064326;28;20192;-77
2023/08/16 01:22:42;;;;;;;2.77;2.57;;;;;;;;;;5074653;28;20174;-77
2023/08/16 01:25:10;;;;;;;2.43;2.23;;;;;;;;;;5062174;28;20176;-77
2023/08/16 01:27:35;;;;;;;2.93;2.40;;;;;;;;;;5061408;28;20234;-77
2023/08/16 01:30:03;;;;;;;4.00;2.23;;;;;;;;;;5051662;28;20277;-77
2023/08/16 01:32:28;;;;;;;2.53;2.33;;;;;;;;;;5076962;28;20179;-77
2023/08/16 01:34:53;;;;;;;2.47;2.27;;;;;;;;;;5073497;28;20188;-77
2023/08/16 01:37:18;;;;;;;3.43;2.53;;;;;;;;;;5053374;28;20237;-77
2023/08/16 01:39:44;;;;;;;2.80;2.60;;;;;;;;;;5055449;28;20193;-77
2023/08/16 01:42:13;;;;;;;3.43;3.13;;;;;;;;;;5062341;28;20199;-77
2023/08/16 01:44:39;;;;;;;2.77;2.57;;;;;;;;;;5040761;28;20176;-77
2023/08/16 01:47:04;;;;;;;2.97;2.67;;;;;;;;;;5055439;28;20181;-77
2023/08/16 01:49:30;;;;;;;2.63;2.43;;;;;;;;;;5044270;28;20185;-77
2023/08/16 01:51:55;;;;;;;3.27;2.37;;;;;;;;;;5036738;28;20211;-77
2023/08/16 01:54:20;;;;;;;4.10;2.80;;;;;;;;;;5052390;28;20178;-77
2023/08/16 01:56:45;;;;;;;2.97;2.77;;;;;;;;;;5027782;28;20249;-77
2023/08/16 01:59:10;;;;;;;4.73;3.23;;;;;;;;;;5053557;28;20225;-77
2023/08/16 02:01:35;;;;;;;2.80;2.60;;;;;;;;;;5035250;28;20201;-77
2023/08/16 02:04:01;;;;;;;2.73;2.53;;;;;;;;;;5050395;28;20200;-77
2023/08/16 02:06:27;;;;;;;2.50;2.30;;;;;;;;;;5031543;28;20173;-77
2023/08/16 02:08:52;;;;;;;2.50;2.30;;;;;;;;;;5038393;28;20183;-77
2023/08/16 02:11:18;;;;;;;3.23;2.97;;;;;;;;;;5035484;28;20188;-77
2023/08/16 02:13:43;;;;;;;2.90;2.70;;;;;;;;;;5039038;28;20184;-77
2023/08/16 02:16:08;;;;;;;3.20;2.70;;;;;;;;;;5050919;28;20194;-77
2023/08/16 02:18:33;;;;;;;3.07;2.73;;;;;;;;;;5056208;28;20201;-77
2023/08/16 02:20:58;;;;;;;3.40;3.10;;;;;;;;;;5033633;28;20181;-77
2023/08/16 02:23:24;;;;;;;3.30;3.00;;;;;;;;;;5051417;28;20175;-77
2023/08/16 02:25:49;;;;;;;2.90;2.70;;;;;;;;;;5039645;28;20264;-77
2023/08/16 02:28:14;;;;;;;3.23;3.00;;;;;;;;;;5035641;28;20204;-77
2023/08/16 02:30:39;;;;;;;3.53;3.07;;;;;;;;;;5037152;28;20182;-77
2023/08/16 02:33:05;;;;;;;3.40;3.10;;;;;;;;;;5037661;28;20271;-77
2023/08/16 02:35:31;;;;;;;3.53;3.23;;;;;;;;;;5044424;28;20224;-77
2023/08/16 02:37:56;;;;;;;3.70;3.40;;;;;;;;;;5069218;28;20235;-77
2023/08/16 02:40:21;;;;;;;3.30;3.00;;;;;;;;;;5069657;28;20206;-77
2023/08/16 02:42:49;;;;;;;3.43;3.13;;;;;;;;;;5068727;28;20184;-77
2023/08/16 02:45:14;;;;;;;4.53;3.93;;;;;;;;;;5066678;28;20275;-77
2023/08/16 02:47:39;;;;;;;3.80;3.40;;;;;;;;;;5058977;28;20265;-77
2023/08/16 02:50:05;;;;;;;3.73;3.43;;;;;;;;;;5078013;28;20169;-77
2023/08/16 02:52:30;;;;;;;4.00;3.70;;;;;;;;;;5070892;28;20189;-77
2023/08/16 02:54:55;;;;;;;4.57;4.17;;;;;;;;;;5048882;28;20191;-77
2023/08/16 02:57:20;;;;;;;5.20;3.97;;;;;;;;;;5054243;28;20187;-77
2023/08/16 02:59:46;;;;;;;4.93;4.17;;;;;;;;;;5070233;28;20188;-77
2023/08/16 03:02:12;;;;;;;4.73;4.33;;;;;;;;;;5054737;28;20211;-76
2023/08/16 03:04:39;;;;;;;4.77;4.23;;;;;;;;;;5067849;28;20181;-77
2023/08/16 03:07:07;;;;;;;5.33;4.10;;;;;;;;;;5071714;28;20217;-77
2023/08/16 03:09:33;;;;;;;4.23;3.83;;;;;;;;;;5055760;28;20191;-77
2023/08/16 03:11:58;;;;;;;5.57;4.00;;;;;;;;;;5055442;28;20210;-77
2023/08/16 03:14:23;;;;;;;3.70;3.40;;;;;;;;;;5066471;28;20174;-77
2023/08/16 03:16:49;;;;;;;3.87;3.50;;;;;;;;;;5077107;28;20237;-77
2023/08/16 03:19:14;;;;;;;3.87;3.57;;;;;;;;;;5076668;28;20233;-77
2023/08/16 03:21:39;;;;;;;4.77;4.37;;;;;;;;;;5060027;28;20240;-76
2023/08/16 03:24:04;;;;;;;4.30;3.90;;;;;;;;;;5072711;28;20182;-77
2023/08/16 03:26:30;;;;;;;5.77;4.10;;;;;;;;;;5058964;28;20237;-77
2023/08/16 03:28:55;;;;;;;4.40;4.00;;;;;;;;;;5057417;28;20254;-77
2023/08/16 03:31:21;;;;;;;3.90;3.60;;;;;;;;;;5072702;28;20227;-77
2023/08/16 03:33:46;;;;;;;3.67;3.33;;;;;;;;;;5075079;28;20207;-77
2023/08/16 03:36:11;;;;;;;5.50;3.80;;;;;;;;;;5058924;28;20289;-77
2023/08/16 03:38:36;;;;;;;5.73;4.67;;;;;;;;;;5054563;28;20208;-77
2023/08/16 03:41:01;;;;;;;4.57;4.17;;;;;;;;;;5078375;28;20208;-77
2023/08/16 03:43:28;;;;;;;3.70;3.40;;;;;;;;;;5069716;28;20179;-77
2023/08/16 03:45:54;;;;;;;4.57;4.10;;;;;;;;;;5074258;28;20225;-77
2023/08/16 03:48:19;;;;;;;5.37;4.27;;;;;;;;;;5070165;28;20191;-77
2023/08/16 03:50:44;;;;;;;3.90;3.50;;;;;;;;;;5081225;28;20203;-77
2023/08/16 03:53:11;;;;;;;4.77;3.93;;;;;;;;;;5050502;28;20210;-77
2023/08/16 03:55:36;;;;;;;6.87;4.33;;;;;;;;;;5073255;28;20221;-77
2023/08/16 03:58:02;;;;;;;5.27;3.70;;;;;;;;;;5069281;28;20236;-77
2023/08/16 04:00:27;;;;;;;4.23;3.83;;;;;;;;;;5069837;28;20170;-77
2023/08/16 04:02:52;;;;;;;3.97;3.67;;;;;;;;;;5050509;28;20182;-77
2023/08/16 04:05:19;;;;;;;4.20;3.80;;;;;;;;;;5071012;28;20183;-77
2023/08/16 04:07:45;;;;;;;3.93;3.53;;;;;;;;;;5073264;28;20192;-77
2023/08/16 04:10:11;;;;;;;4.10;3.70;;;;;;;;;;5056223;28;20168;-77
2023/08/16 04:12:36;;;;;;;4.17;3.70;;;;;;;;;;5054345;28;20178;-77
2023/08/16 04:15:03;;;;;;;4.00;3.70;;;;;;;;;;5055115;28;20190;-77
2023/08/16 04:17:28;;;;;;;3.63;3.33;;;;;;;;;;5076364;28;20189;-77
2023/08/16 04:19:54;;;;;;;4.33;3.50;;;;;;;;;;5070922;28;20177;-77
2023/08/16 04:22:19;;;;;;;3.50;3.20;;;;;;;;;;5071878;28;20207;-77
2023/08/16 04:24:44;;;;;;;4.37;3.87;;;;;;;;;;5071565;28;20177;-77
2023/08/16 04:27:09;;;;;;;3.60;3.30;;;;;;;;;;5074227;28;20216;-77
2023/08/16 04:29:34;;;;;;;4.43;3.47;;;;;;;;;;5057331;28;20198;-77
2023/08/16 04:32:00;;;;;;;4.33;3.93;;;;;;;;;;5057213;28;20237;-77
2023/08/16 04:34:25;;;;;;;15.87;4.63;;;;;;;;;;5073076;28;20181;-77
2023/08/16 04:36:50;;;;;;;8.47;3.80;;;;;;;;;;5052742;28;20236;-77
2023/08/16 04:39:15;;;;;;;5.97;4.07;;;;;;;;;;5060952;28;20262;-77
2023/08/16 04:41:40;;;;;;;6.40;3.87;;;;;;;;;;5073369;28;20184;-77
2023/08/16 04:44:06;;;;;;;5.60;4.20;;;;;;;;;;5052494;28;20181;-77
2023/08/16 04:46:31;;;;;;;4.13;3.27;;;;;;;;;;5075012;28;20171;-77
2023/08/16 04:48:56;;;;;;;10.07;4.30;;;;;;;;;;5058353;28;20208;-76
2023/08/16 04:51:21;;;;;;;8.43;5.43;;;;;;;;;;5073963;28;20222;-77
2023/08/16 04:53:47;;;;;;;5.00;4.60;;;;;;;;;;5055196;28;20186;-77
2023/08/16 04:56:12;;;;;;;4.50;4.10;;;;;;;;;;5073579;28;20263;-77
2023/08/16 04:58:37;;;;;;;4.17;3.87;;;;;;;;;;5053614;28;20204;-77
2023/08/16 05:01:02;;;;;;;5.30;4.77;;;;;;;;;;5070648;28;20199;-77
2023/08/16 05:03:29;;;;;;;11.57;4.40;;;;;;;;;;5074115;28;20306;-77
2023/08/16 05:05:55;;;;;;;21.10;5.60;;;;;;;;;;5072431;28;20178;-77
2023/08/16 05:08:20;;;;;;;16.87;4.97;;;;;;;;;;5079944;28;20571;-76
2023/08/16 05:10:45;;;;;;;7.63;4.30;;;;;;;;;;5069157;28;20183;-76
2023/08/16 05:13:11;;;;;;;4.43;3.77;;;;;;;;;;5067810;28;20211;-77
2023/08/16 05:15:36;;;;;;;8.13;3.93;;;;;;;;;;5061722;28;20183;-77
2023/08/16 05:18:01;;;;;;;4.90;3.93;;;;;;;;;;5078716;28;20209;-77
2023/08/16 05:20:26;;;;;;;23.07;5.63;;;;;;;;;;5052024;28;20268;-77
2023/08/16 05:22:51;;;;;;;4.82;3.80;;;;;;;;;;5060015;28;20252;-77
2023/08/16 05:25:17;;;;;;;13.30;5.07;;;;;;;;;;5067684;28;20183;-76
2023/08/16 05:27:42;;;;;;;4.33;3.80;;;;;;;;;;5074841;28;20206;-77
2023/08/16 05:30:07;;;;;;;4.17;3.70;;;;;;;;;;5056888;28;20177;-77
2023/08/16 05:32:32;;;;;;;3.63;3.30;;;;;;;;;;5079592;28;20178;-77
2023/08/16 05:34:57;;;;;;;4.00;3.60;;;;;;;;;;5055235;28;20215;-76
2023/08/16 05:37:23;;;;;;;4.27;3.87;;;;;;;;;;5074785;28;20183;-77
2023/08/16 05:39:49;;;;;;;4.70;3.70;;;;;;;;;;5083173;28;20196;-77
2023/08/16 05:42:14;;;;;;;8.10;4.13;;;;;;;;;;5058291;28;20202;-77
2023/08/16 05:44:39;;;;;;;4.23;3.83;;;;;;;;;;5071096;28;20200;-77
2023/08/16 05:47:04;;;;;;;6.27;4.30;;;;;;;;;;5057242;28;20175;-77
2023/08/16 05:49:29;;;;;;;4.17;3.67;;;;;;;;;;5077258;28;20281;-77
2023/08/16 05:51:55;;;;;;;3.50;3.20;;;;;;;;;;5057255;28;20196;-77
2023/08/16 05:54:20;;;;;;;3.90;3.50;;;;;;;;;;5079481;28;20173;-76
2023/08/16 05:56:45;;;;;;;4.40;3.70;;;;;;;;;;5075750;28;20217;-77
2023/08/16 05:59:10;;;;;;;8.00;3.80;;;;;;;;;;5074648;28;20210;-77
2023/08/16 06:01:35;;;;;;;4.10;3.70;;;;;;;;;;5073253;28;20174;-77
2023/08/16 06:04:01;;;;;;;4.13;3.83;;;;;;;;;;5071519;28;20209;-77
2023/08/16 06:06:26;;;;;;;4.73;3.57;;;;;;;;;;5055312;28;20192;-77
2023/08/16 06:08:51;;;;;;;6.30;4.13;;;;;;;;;;5075593;28;20266;-77
2023/08/16 06:11:16;;;;;;;4.60;4.20;;;;;;;;;;5056815;28;20203;-77
2023/08/16 06:13:41;;;;;;;3.67;3.37;;;;;;;;;;5050263;28;20291;-77
2023/08/16 06:16:07;;;;;;;4.03;3.73;;;;;;;;;;5056711;28;20218;-77
2023/08/16 06:18:32;;;;;;;5.77;3.73;;;;;;;;;;5075509;28;20292;-77
2023/08/16 06:20:57;;;;;;;4.73;3.83;;;;;;;;;;5057727;28;20175;-77
2023/08/16 06:23:22;;;;;;;3.37;3.07;;;;;;;;;;5068658;28;20290;-76
2023/08/16 06:25:48;;;;;;;4.10;3.73;;;;;;;;;;5067045;28;20277;-73
2023/08/16 06:28:13;;;;;;;5.57;3.60;;;;;;;;;;5072653;28;20169;-77
2023/08/16 06:30:38;;;;;;;7.17;3.90;;;;;;;;;;5047114;28;20190;-76
2023/08/16 06:33:03;;;;;;;4.20;3.83;;;;;;;;;;5047839;28;20245;-77
2023/08/16 06:35:29;;;;;;;5.17;3.80;;;;;;;;;;5061199;28;20256;-76
2023/08/16 06:37:55;;;;;;;5.20;3.47;;;;;;;;;;5057280;28;20265;-77
2023/08/16 06:40:20;;;;;;;3.77;3.47;;;;;;;;;;5073798;28;20267;-77
2023/08/16 06:42:46;;;;;;;4.17;3.70;;;;;;;;;;5072677;28;20259;-77
2023/08/16 06:45:11;;;;;;;4.53;3.67;;;;;;;;;;5080367;28;20178;-77
2023/08/16 06:47:36;;;;;;;3.93;3.30;;;;;;;;;;5057357;28;20263;-76
2023/08/16 06:50:01;;;;;;;6.37;3.23;;;;;;;;;;5070658;28;20269;-77
2023/08/16 06:52:26;;;;;;;4.73;3.17;;;;;;;;;;5068136;28;20171;-76
2023/08/16 06:54:52;;;;;;;4.13;3.60;;;;;;;;;;5051637;28;20182;-76
2023/08/16 06:57:17;;;;;;;13.90;4.60;;;;;;;;;;5070817;28;20265;-76
2023/08/16 06:59:43;;;;;;;19.03;3.87;;;;;;;;;;5053405;28;20205;-77
2023/08/16 07:02:11;;;;;;;5.83;3.50;;;;;;;;;;5071797;28;20170;-76
2023/08/16 07:04:36;;;;;;;3.73;3.43;;;;;;;;;;5066886;28;20281;-77
2023/08/16 07:07:02;;;;;;;5.33;3.17;;;;;;;;;;5068551;28;20283;-77
2023/08/16 07:09:27;;;;;;;4.90;3.80;;;;;;;;;;5050660;28;20192;-76
2023/08/16 07:11:53;;;;;;;3.13;2.77;;;;;;;;;;5052798;28;20188;-76
2023/08/16 07:14:18;;;;;;;3.80;2.80;;;;;;;;;;5049248;28;20209;-77
2023/08/16 07:16:43;;;;;;;3.57;3.20;;;;;;;;;;5049404;28;20184;-77
2023/08/16 07:19:09;;;;;;;4.20;3.17;;;;;;;;;;5045543;28;20211;-81
2023/08/16 07:21:35;;;;;;;3.13;2.83;;;;;;;;;;5067088;28;20171;-81
2023/08/16 07:24:00;;;;;;;5.63;5.23;;;;;;;;;;5048031;28;20181;-81
2023/08/16 07:26:25;;;;;;;3.40;3.10;;;;;;;;;;5070521;28;20180;-81
2023/08/16 07:28:51;;;;;;;3.20;2.90;;;;;;;;;;5055214;28;20219;-81
2023/08/16 07:31:16;;;;;;;13.93;4.63;;;;;;;;;;5046075;28;20176;-81
2023/08/16 07:33:41;;;;;;;3.53;3.23;;;;;;;;;;5055788;28;20180;-81
2023/08/16 07:36:06;;;;;;;13.20;5.10;;;;;;;;;;5072502;28;20231;-81
2023/08/16 07:38:33;;;;;;;6.33;3.80;;;;;;;;;;5080095;28;20208;-81
2023/08/16 07:40:59;;;;;;;6.23;3.80;;;;;;;;;;5071447;28;20191;-81
2023/08/16 07:43:24;;;;;;;3.63;3.33;;;;;;;;;;5053671;28;20191;-81
2023/08/16 07:45:53;;;;;;;4.47;3.73;;;;;;;;;;5055330;28;20174;-81
2023/08/16 07:48:18;;;;;;;3.93;3.63;;;;;;;;;;5056315;28;20184;-81
2023/08/16 07:50:45;;;;;;;4.10;3.70;;;;;;;;;;5072370;28;20201;-81
2023/08/16 07:53:11;;;;;;;4.20;3.80;;;;;;;;;;5055044;28;20252;-81
2023/08/16 07:55:36;;;;;;;4.00;3.55;;;;;;;;;;5058483;28;20213;-80
2023/08/16 07:58:01;;;;;;;5.00;3.97;;;;;;;;;;5078221;28;20294;-81
2023/08/16 08:00:26;;;;;;;4.20;3.83;;;;;;;;;;5050420;28;20177;-81
2023/08/16 08:02:53;;;;;;;4.28;3.88;;;;;;;;;;5042138;28;20170;-81
2023/08/16 08:05:18;;;;;;;4.40;4.00;;;;;;;;;;5064416;28;20177;-81
2023/08/16 08:07:43;;;;;;;3.92;3.63;;;;;;;;;;5053356;28;20182;-81
2023/08/16 08:10:09;;;;;;;4.22;3.83;;;;;;;;;;5066596;28;20272;-81
2023/08/16 08:12:34;;;;;;;7.72;4.97;;;;;;;;;;5061645;28;20249;-80
2023/08/16 08:14:59;;;;;;;4.97;3.93;;;;;;;;;;5061025;28;20185;-81
2023/08/16 08:17:24;;;;;;;14.93;5.15;;;;;;;;;;5052085;28;20176;-81
2023/08/16 08:19:50;;;;;;;5.15;4.18;;;;;;;;;;5073176;28;20258;-81
2023/08/16 08:22:15;;;;;;;4.00;3.60;;;;;;;;;;5078099;28;20179;-81
2023/08/16 08:24:40;;;;;;;5.35;4.20;;;;;;;;;;5061736;28;20277;-81
2023/08/16 08:27:05;;;;;;;4.70;4.30;;;;;;;;;;5058853;28;20176;-81
2023/08/16 08:29:31;;;;;;;3.88;3.58;;;;;;;;;;5058333;28;20180;-86
2023/08/16 08:31:56;;;;;;;3.90;3.60;;;;;;;;;;5056852;28;20181;-85
2023/08/16 08:34:22;;;;;;;4.32;3.92;;;;;;;;;;5061560;28;20180;-80
2023/08/16 08:36:47;;;;;;;4.72;4.32;;;;;;;;;;5046789;28;20225;-80
2023/08/16 08:39:15;;;;;;;4.72;4.20;;;;;;;;;;5050485;28;20205;-80
2023/08/16 08:41:40;;;;;;;4.53;4.10;;;;;;;;;;5062072;28;20221;-80
2023/08/16 08:44:06;;;;;;;3.92;3.53;;;;;;;;;;5052778;28;20201;-80
2023/08/16 08:46:31;;;;;;;8.63;4.60;;;;;;;;;;5053761;28;20272;-80
2023/08/16 08:49:00;;;;;;;4.55;4.15;;;;;;;;;;5055988;28;20210;-80
2023/08/16 08:51:28;;;;;;;4.90;4.15;;;;;;;;;;5054757;28;20193;-81
2023/08/16 08:53:53;;;;;;;5.38;4.60;;;;;;;;;;5052438;28;20189;-80
2023/08/16 08:56:19;;;;;;;7.40;4.75;;;;;;;;;;5050838;28;20178;-80
2023/08/16 08:58:45;;;;;;;4.95;4.55;;;;;;;;;;5071567;28;20202;-80
2023/08/16 09:01:11;;;;;;;5.03;4.28;;;;;;;;;;5057072;28;20174;-80
2023/08/16 09:03:36;;;;;;;4.68;4.25;;;;;;;;;;5054108;28;20249;-81
2023/08/16 09:06:03;;;;;;;6.35;4.40;;;;;;;;;;5054229;28;20236;-80
2023/08/16 09:08:29;;;;;;;6.07;4.60;;;;;;;;;;5048573;28;20202;-80
2023/08/16 09:10:54;;;;;;;4.35;3.95;;;;;;;;;;5048686;28;20213;-80
2023/08/16 09:13:19;;;;;;;5.55;4.30;;;;;;;;;;5051288;28;20197;-79
2023/08/16 09:15:45;;;;;;;7.47;4.03;;;;;;;;;;5047027;28;20187;-80
2023/08/16 09:18:11;;;;;;;4.70;4.22;;;;;;;;;;5050101;28;20248;-80
2023/08/16 09:20:36;;;;;;;6.15;4.60;;;;;;;;;;5050509;28;20262;-80
2023/08/16 09:23:02;;;;;;;6.30;4.60;;;;;;;;;;5050377;28;20270;-80
2023/08/16 09:25:31;;;;;;;4.85;4.40;;;;;;;;;;5054380;28;20227;-80
2023/08/16 09:27:56;;;;;;;4.78;4.15;;;;;;;;;;5054925;28;20207;-80
2023/08/16 09:30:24;;;;;;;6.13;4.50;;;;;;;;;;5044565;28;20170;-80
2023/08/16 09:32:51;;;;;;;4.72;4.32;;;;;;;;;;5049148;28;20179;-80
2023/08/16 09:35:17;;;;;;;5.93;4.95;;;;;;;;;;5053736;28;20232;-80
2023/08/16 09:37:42;;;;;;;8.18;4.55;;;;;;;;;;5054084;28;20182;-80
2023/08/16 09:40:10;;;;;;;8.40;4.90;;;;;;;;;;5052901;28;20178;-80
2023/08/16 09:42:36;;;;;;;6.05;4.72;;;;;;;;;;5061207;28;20182;-80
2023/08/16 09:45:02;;;;;;;4.85;4.45;;;;;;;;;;5057724;28;20177;-80
2023/08/16 09:47:28;;;;;;;5.68;4.53;;;;;;;;;;5057987;28;20239;-80
2023/08/16 09:49:54;;;;;;;5.38;4.82;;;;;;;;;;5079147;28;20258;-80
2023/08/16 09:52:19;;;;;;;7.68;5.20;;;;;;;;;;5070792;28;20185;-80
2023/08/16 09:54:47;;;;;;;4.88;4.47;;;;;;;;;;5063326;28;20181;-80
2023/08/16 09:57:13;;;;;;;6.35;4.72;;;;;;;;;;5053530;28;20196;-80
2023/08/16 09:59:38;;;;;;;4.75;4.35;;;;;;;;;;5075365;28;20189;-80
2023/08/16 10:02:03;;;;;;;5.68;4.72;;;;;;;;;;5069041;28;20177;-80
2023/08/16 10:04:29;;;;;;;5.00;4.47;;;;;;;;;;5057304;28;20185;-80
2023/08/16 10:06:54;;;;;;;4.90;4.10;;;;;;;;;;5069937;28;20184;-80
2023/08/16 10:09:20;;;;;;;4.93;4.53;;;;;;;;;;5065496;28;20184;-80
2023/08/16 10:11:47;;;;;;;4.68;4.03;;;;;;;;;;5066181;28;20264;-80
2023/08/16 10:14:13;;;;;;;4.57;4.22;;;;;;;;;;5053362;28;20173;-80
2023/08/16 10:16:38;;;;;;;5.40;4.75;;;;;;;;;;5047380;28;20240;-80
2023/08/16 10:19:04;;;;;;;6.93;4.60;;;;;;;;;;5073498;28;20205;-80
2023/08/16 10:21:30;;;;;;;5.55;4.50;;;;;;;;;;5054561;28;20181;-80
2023/08/16 10:23:56;;;;;;;5.40;4.50;;;;;;;;;;5065804;28;20192;-80
2023/08/16 10:26:22;;;;;;;4.57;3.92;;;;;;;;;;5072772;28;20220;-80
2023/08/16 10:28:50;;;;;;;5.20;4.70;;;;;;;;;;5055400;28;20213;-79
2023/08/16 10:31:17;;;;;;;8.65;4.68;;;;;;;;;;5070621;28;20221;-80
2023/08/16 10:33:44;;;;;;;7.70;5.40;;;;;;;;;;5066566;28;20272;-80
2023/08/16 10:36:10;;;;;;;5.18;4.68;;;;;;;;;;5052313;28;20238;-80
2023/08/16 10:38:40;;;;;;;7.40;5.57;;;;;;;;;;5047687;28;20300;-80
2023/08/16 10:41:12;;;;;;;5.25;4.82;;;;;;;;;;5047944;28;20174;-80
2023/08/16 10:43:38;;;;;;;8.77;5.10;;;;;;;;;;5052620;28;20255;-80
2023/08/16 10:46:04;;;;;;;5.60;4.88;;;;;;;;;;5051880;28;20179;-80
2023/08/16 10:48:35;;;;;;;5.65;4.60;;;;;;;;;;5050917;28;20171;-80
2023/08/16 10:51:04;;;;;;;6.97;5.20;;;;;;;;;;5052948;28;20205;-80
2023/08/16 10:53:29;;;;;;;5.47;4.78;;;;;;;;;;5049485;28;20227;-80
2023/08/16 10:55:55;;;;;;;5.80;5.20;;;;;;;;;;5046634;28;20170;-80
2023/08/16 10:58:24;;;;;;;6.22;4.25;;;;;;;;;;5066845;28;20217;-80
2023/08/16 11:00:59;;;;;;;5.47;4.75;;;;;;;;;;5052592;28;20174;-80
2023/08/16 11:03:31;;;;;;;5.28;4.65;;;;;;;;;;5053058;28;20197;-79
2023/08/16 11:05:59;;;;;;;6.35;4.93;;;;;;;;;;5049892;28;20272;-80
2023/08/16 11:08:24;;;;;;;7.85;5.00;;;;;;;;;;5046836;28;20188;-79
2023/08/16 11:10:50;;;;;;;5.15;4.75;;;;;;;;;;5049352;28;20261;-80
2023/08/16 11:13:15;;;;;;;6.95;4.68;;;;;;;;;;5047842;28;20182;-80
2023/08/16 11:15:40;;;;;;;5.13;4.70;;;;;;;;;;5056298;28;20182;-80
2023/08/16 11:18:05;;;;;;;7.28;5.00;;;;;;;;;;5056221;28;20206;-80
2023/08/16 11:20:31;;;;;;;5.38;4.88;;;;;;;;;;5058649;28;20174;-80
2023/08/16 11:22:59;;;;;;;6.68;5.63;;;;;;;;;;5048094;28;20205;-80
2023/08/16 11:25:30;;;;;;;6.25;4.78;;;;;;;;;;5049408;28;20177;-80
2023/08/16 11:27:59;;;;;;;4.82;4.20;;;;;;;;;;5049222;28;20246;-80
2023/08/16 11:30:24;;;;;;;5.07;4.60;;;;;;;;;;5054344;28;20173;-80
2023/08/16 11:32:49;;;;;;;5.13;4.63;;;;;;;;;;5061711;28;20267;-81
2023/08/16 11:35:16;;;;;;;5.05;4.55;;;;;;;;;;5051845;28;20263;-80
2023/08/16 11:37:41;;;;;;;5.03;4.38;;;;;;;;;;5074638;28;20168;-80
2023/08/16 11:40:10;;;;;;;6.75;4.95;;;;;;;;;;5069075;28;20187;-80
2023/08/16 11:42:35;;;;;;;4.70;4.28;;;;;;;;;;5070862;28;20203;-79
2023/08/16 11:45:01;;;;;;;5.43;4.85;;;;;;;;;;5081181;28;20185;-80
2023/08/16 11:47:26;;;;;;;7.10;5.20;;;;;;;;;;5045537;28;20177;-80
2023/08/16 11:49:52;;;;;;;8.63;5.13;;;;;;;;;;5052432;28;20271;-80
2023/08/16 11:52:21;;;;;;;6.85;5.45;;;;;;;;;;5058989;28;20260;-80
2023/08/16 11:54:46;;;;;;;6.32;5.70;;;;;;;;;;5062652;28;20172;-80
2023/08/16 11:57:16;;;;;;;7.25;5.18;;;;;;;;;;5050994;28;20177;-80
2023/08/16 11:59:41;;;;;;;6.28;4.88;;;;;;;;;;5070157;28;20284;-80
2023/08/16 12:02:07;;;;;;;6.15;5.00;;;;;;;;;;5077359;28;20263;-80
2023/08/16 12:04:32;;;;;;;6.13;5.47;;;;;;;;;;5052954;28;20175;-81
2023/08/16 12:06:57;;;;;;;6.00;5.40;;;;;;;;;;5065998;28;20174;-80
2023/08/16 12:09:23;;;;;;;5.55;5.10;;;;;;;;;;5074231;28;20180;-80
2023/08/16 12:11:51;;;;;;;8.02;5.30;;;;;;;;;;5070854;28;20182;-81
2023/08/16 12:14:17;;;;;;;6.32;4.90;;;;;;;;;;5063556;28;20177;-80
2023/08/16 12:16:42;;;;;;;7.07;4.70;;;;;;;;;;5069119;28;20291;-80
2023/08/16 12:19:07;;;;;;;8.13;5.60;;;;;;;;;;5064311;28;20197;-80
2023/08/16 12:21:32;;;;;;;6.13;5.30;;;;;;;;;;5059086;28;20409;-81
2023/08/16 12:23:57;;;;;;;5.00;4.55;;;;;;;;;;5063836;28;20513;-81
2023/08/16 12:26:23;;;;;;;5.45;5.03;;;;;;;;;;5054208;28;20177;-80
2023/08/16 12:28:48;;;;;;;6.53;4.77;;;;;;;;;;5076041;28;20189;-80
2023/08/16 12:31:13;;;;;;;6.03;4.90;;;;;;;;;;5079455;28;20406;-80
2023/08/16 12:33:40;;;;;;;5.13;4.63;;;;;;;;;;5076342;28;20185;-80
2023/08/16 12:36:06;;;;;;;8.18;5.78;;;;;;;;;;5076220;28;20296;-80
2023/08/16 12:38:31;;;;;;;7.18;5.47;;;;;;;;;;5059650;28;20283;-81
2023/08/16 12:40:56;;;;;;;5.87;5.37;;;;;;;;;;5072512;28;20265;-81
2023/08/16 12:43:21;;;;;;;7.55;5.43;;;;;;;;;;5063321;28;20413;-81
2023/08/16 12:45:46;;;;;;;5.38;4.88;;;;;;;;;;5058227;28;20243;-81
2023/08/16 12:48:12;;;;;;;6.90;5.20;;;;;;;;;;5072441;28;20199;-80
2023/08/16 12:50:40;;;;;;;5.18;4.68;;;;;;;;;;5057922;28;20197;-80
2023/08/16 12:53:07;;;;;;;6.35;5.35;;;;;;;;;;5074019;28;20185;-81
2023/08/16 12:55:32;;;;;;;5.75;5.25;;;;;;;;;;5063613;28;20177;-81
2023/08/16 12:57:58;;;;;;;12.13;6.95;;;;;;;;;;5070691;28;20194;-81
2023/08/16 13:00:23;;;;;;;5.47;4.97;;;;;;;;;;5075411;28;20170;-80
2023/08/16 13:02:48;;;;;;;7.00;5.65;;;;;;;;;;5051295;28;20187;-80
2023/08/16 13:05:14;;;;;;;8.05;5.07;;;;;;;;;;5055356;28;20177;-80
2023/08/16 13:07:39;;;;;;;5.47;4.97;;;;;;;;;;5057125;28;20174;-80
2023/08/16 13:10:04;;;;;;;6.15;5.55;;;;;;;;;;5067022;28;20177;-80
2023/08/16 13:12:30;;;;;;;5.75;5.13;;;;;;;;;;5052920;28;20170;-81
2023/08/16 13:14:55;;;;;;;5.40;4.93;;;;;;;;;;5058098;28;20184;-81
2023/08/16 13:17:20;;;;;;;5.63;5.13;;;;;;;;;;5055665;28;20307;-80
2023/08/16 13:19:46;;;;;;;7.28;5.22;;;;;;;;;;5072759;28;20466;-80
2023/08/16 13:22:12;;;;;;;5.82;5.22;;;;;;;;;;5054024;28;20184;-80
2023/08/16 13:24:37;;;;;;;7.35;5.53;;;;;;;;;;5074965;28;20169;-80
2023/08/16 13:27:02;;;;;;;5.88;5.28;;;;;;;;;;5057965;28;20174;-80
2023/08/16 13:29:27;;;;;;;7.05;5.07;;;;;;;;;;5056481;28;20173;-81
2023/08/16 13:31:53;;;;;;;6.30;5.80;;;;;;;;;;5061967;28;20181;-80
2023/08/16 13:34:18;;;;;;;7.33;5.60;;;;;;;;;;5079076;28;20176;-80
2023/08/16 13:36:43;;;;;;;6.03;5.40;;;;;;;;;;5055898;28;20502;-80
2023/08/16 13:39:09;;;;;;;6.38;5.68;;;;;;;;;;5062205;28;20445;-80
2023/08/16 13:41:34;;;;;;;5.80;5.30;;;;;;;;;;5060092;28;20173;-81
2023/08/16 13:43:59;;;;;;;7.40;5.97;;;;;;;;;;5056973;28;20178;-81
2023/08/16 13:46:24;;;;;;;30.20;7.30;;;;;;;;;;5064749;28;20470;-80
2023/08/16 13:48:49;;;;;;;6.25;5.65;;;;;;;;;;5061172;28;20169;-80
2023/08/16 13:51:15;;;;;;;5.78;5.28;;;;;;;;;;5082828;28;20193;-81
2023/08/16 13:53:41;;;;;;;7.30;5.50;;;;;;;;;;5054778;28;20177;-81
2023/08/16 13:56:06;;;;;;;8.38;5.85;;;;;;;;;;5060634;28;20204;-80
2023/08/16 13:58:32;;;;;;;7.55;5.72;;;;;;;;;;5053514;28;20225;-81
2023/08/16 14:00:57;;;;;;;6.22;5.68;;;;;;;;;;5075327;28;20169;-80
2023/08/16 14:03:23;;;;;;;6.83;5.97;;;;;;;;;;5078545;28;20177;-81
2023/08/16 14:05:53;;;;;;;7.75;4.85;;;;;;;;;;5056826;28;20414;-81
2023/08/16 14:08:18;;;;;;;6.35;5.85;;;;;;;;;;5077488;28;20233;-81
2023/08/16 14:10:43;;;;;;;6.00;5.40;;;;;;;;;;5058232;28;20181;-81
2023/08/16 14:13:12;;;;;;;6.20;5.67;;;;;;;;;;5072069;28;20446;-81
2023/08/16 14:15:38;;;;;;;8.90;6.57;;;;;;;;;;5073602;28;20481;-81
2023/08/16 14:18:03;;;;;;;6.53;5.97;;;;;;;;;;5066536;28;20205;-81
2023/08/16 14:20:28;;;;;;;7.28;6.55;;;;;;;;;;5071486;28;20235;-81
2023/08/16 14:22:53;;;;;;;6.40;5.83;;;;;;;;;;5059614;28;20196;-81
2023/08/16 14:25:18;;;;;;;8.65;6.40;;;;;;;;;;5070191;28;20418;-81
2023/08/16 14:27:44;;;;;;;8.20;5.97;;;;;;;;;;5060299;28;20178;-81
2023/08/16 14:30:09;;;;;;;9.13;6.47;;;;;;;;;;5057116;28;20495;-81
2023/08/16 14:32:34;;;;;;;7.15;6.28;;;;;;;;;;5059312;28;20206;-81
2023/08/16 14:34:59;;;;;;;8.23;6.67;;;;;;;;;;5069319;28;20190;-81